Time;durP1;ratioP1;P1;durP2;ratioP2;P2;SDS_P1;SDS_P2;PMS_P1;PMS_P2;Temp;Humidity;BMP_temperature;BMP_pressure;BME280_temperature;BME280_humidity;BME280_pressure;Samples;Min_cycle;Max_cycle;Signal;HPM_P1;HPM_P2
2020/12/01 03:33:14;;;;;;;55.17;22.20;;;;;;;-1.90;83.18;99583.09;4605027;75;25136;-86
2020/12/01 03:39:35;;;;;;;52.97;21.53;;;;;;;-2.04;83.35;99584.00;4627789;75;21472;-85
2020/12/01 03:45:39;;;;;;;57.40;23.40;;;;;;;-2.07;83.27;99585.34;4663373;75;21326;-85
2020/12/01 03:51:40;;;;;;;53.40;23.50;;;;;;;-2.11;83.53;99588.86;4664446;75;21156;-84
2020/12/01 03:57:43;;;;;;;48.10;20.92;;;;;;;-2.16;83.15;99582.20;4472483;75;488113;-84
2020/12/01 06:51:11;;;;;;;51.97;23.30;;;;;;;-4.29;83.92;99550.01;4150546;84;21177;-85
2020/12/01 06:57:27;;;;;;;64.15;27.62;;;;;;;-4.22;84.04;99538.54;4162234;84;21701;-85
2020/12/01 07:03:29;;;;;;;;;;;;;;;-4.24;84.06;99534.51;4108143;83;21194;-86
2020/12/01 07:09:41;;;;;;;48.87;21.40;;;;;;;-4.17;84.22;99531.05;4143182;84;20444;-85
2020/12/01 07:15:51;;;;;;;57.80;26.23;;;;;;;-4.06;84.23;99523.31;4096726;83;77924;-86
2020/12/01 07:22:39;;;;;;;60.00;25.82;;;;;;;-3.94;84.53;99527.32;3739182;85;5499345;-85
2020/12/01 07:36:35;;;;;;;62.47;30.10;;;;;;;-3.15;85.90;99524.78;4451937;77;63188;-87
2020/12/01 07:43:27;;;;;;;58.33;26.70;;;;;;;-2.29;85.24;99523.81;4137363;79;5167219;-84
2020/12/01 07:56:29;;;;;;;51.30;25.33;;;;;;;-1.36;85.27;99525.16;4442701;78;24869;-84
2020/12/01 08:02:32;;;;;;;57.83;26.47;;;;;;;-1.08;84.97;99535.63;4386421;80;21193;-82
2020/12/01 08:08:38;;;;;;;53.90;25.67;;;;;;;-0.50;85.34;99530.33;4194726;79;62808;-82
2020/12/01 08:14:51;;;;;;;;;;;;;;;-0.01;84.94;99533.36;4183914;84;21532;-83
2020/12/01 08:20:56;;;;;;;38.00;18.20;;;;;;;0.38;83.89;99540.53;4168962;84;20203;-83
2020/12/01 08:27:06;;;;;;;31.33;15.30;;;;;;;0.43;83.63;99544.49;4176370;84;21204;-83
2020/12/01 08:33:14;;;;;;;32.03;15.85;;;;;;;1.00;83.44;99545.89;4177238;84;21183;-82
2020/12/01 08:39:57;;;;;;;29.10;15.32;;;;;;;1.34;83.09;99548.98;4165786;84;21190;-82
2020/12/01 08:46:10;;;;;;;27.65;14.58;;;;;;;1.66;82.07;99558.83;4167807;84;21192;-82
2020/12/01 08:52:40;;;;;;;28.10;15.23;;;;;;;2.01;81.98;99555.33;4125805;84;38698;-83
2020/12/01 08:58:47;;;;;;;30.43;15.35;;;;;;;2.41;81.49;99541.65;4142741;84;21242;-84
2020/12/01 09:05:01;;;;;;;30.62;15.32;;;;;;;2.90;80.09;99542.00;4141479;84;21353;-84
2020/12/01 09:17:46;;;;;;;34.88;17.70;;;;;;;3.81;79.06;99542.91;4146118;84;21231;-83
2020/12/01 09:23:43;;;;;;;27.70;15.55;;;;;;;4.16;78.81;99539.10;4139201;83;21187;-84
2020/12/01 09:29:49;;;;;;;28.10;13.68;;;;;;;4.28;77.79;99539.25;4135652;85;21732;-83
2020/12/01 09:35:54;;;;;;;28.67;14.70;;;;;;;4.67;77.95;99536.31;4135965;84;21214;-83
2020/12/01 09:48:26;;;;;;;24.27;12.93;;;;;;;4.29;73.13;99536.21;4139249;83;21202;-84
2020/12/01 10:26:17;;;;;;;20.82;12.82;;;;;;;5.66;70.40;99508.00;4280128;82;39471;-84
2020/12/01 10:32:25;;;;;;;;;;;;;;;5.24;67.28;99503.63;4218188;82;35024;-84
2020/12/01 10:38:15;;;;;;;23.90;13.90;;;;;;;5.18;67.76;99502.78;4216273;81;20570;-84
2020/12/01 10:44:32;;;;;;;21.68;12.98;;;;;;;4.81;66.59;99492.16;4204924;82;21353;-85
2020/12/01 10:51:01;;;;;;;26.33;12.33;;;;;;;4.85;67.16;99497.19;4218805;82;21208;-85
2020/12/01 10:57:11;;;;;;;22.82;13.10;;;;;;;4.68;59.94;99494.53;4116377;84;21133;-83
2020/12/01 11:09:37;;;;;;;29.05;14.63;;;;;;;4.16;66.19;99493.04;4187456;82;21188;-83
2020/12/01 11:15:40;;;;;;;24.77;12.82;;;;;;;4.05;66.42;99500.70;4185274;84;22082;-83
2020/12/01 11:21:55;;;;;;;29.75;14.20;;;;;;;4.18;65.18;99497.59;4064299;86;21262;-84
2020/12/01 11:28:03;;;;;;;26.82;13.62;;;;;;;4.00;65.71;99499.51;4198073;84;21149;-83
2020/12/01 11:34:12;;;;;;;24.77;13.25;;;;;;;3.91;63.39;99493.30;4056324;86;21170;-83
2020/12/01 11:40:21;;;;;;;27.75;14.33;;;;;;;3.55;62.73;99483.88;4057400;85;52957;-83
2020/12/01 11:46:24;;;;;;;23.27;13.05;;;;;;;3.23;63.27;99481.60;4111626;84;21280;-84
2020/12/01 11:52:26;;;;;;;28.30;14.20;;;;;;;3.27;63.77;99475.79;4111060;84;21219;-84
2020/12/01 11:58:29;;;;;;;23.55;13.62;;;;;;;3.21;64.30;99473.80;4107134;85;21222;-84
2020/12/01 12:04:31;;;;;;;27.60;14.38;;;;;;;3.11;62.27;99476.78;4102551;85;21210;-84
2020/12/01 12:11:00;;;;;;;31.75;15.20;;;;;;;2.95;63.86;99470.20;4576527;76;26538;-84
2020/12/01 12:17:02;;;;;;;26.15;13.43;;;;;;;2.88;64.25;99463.89;4349777;80;21171;-84
2020/12/01 12:23:06;;;;;;;28.60;13.55;;;;;;;2.82;62.66;99464.34;4339040;80;138046;-83
2020/12/01 12:29:07;;;;;;;26.25;13.43;;;;;;;2.75;64.00;99454.55;4211997;82;110818;-83
2020/12/01 12:35:10;;;;;;;22.25;12.63;;;;;;;2.80;63.99;99458.48;4212311;82;43062;-83
2020/12/01 12:41:16;;;;;;;24.63;13.08;;;;;;;2.68;64.01;99452.30;4100183;81;5237248;-84
2020/12/01 12:47:24;;;;;;;29.92;13.15;;;;;;;2.73;63.09;99449.46;4028199;87;21706;-83
2020/12/01 12:53:36;;;;;;;24.32;12.70;;;;;;;2.63;62.15;99449.72;4061136;86;21714;-83
2020/12/01 13:10:22;;;;;;;31.25;15.30;;;;;;;2.34;62.54;99460.79;4225148;81;23007;-84
2020/12/01 13:16:25;;;;;;;31.20;14.73;;;;;;;2.22;61.96;99461.92;4094230;84;33659;-84
2020/12/01 13:22:29;;;;;;;30.43;15.55;;;;;;;2.14;62.47;99462.12;4046649;86;1759078;-85
2020/12/01 13:28:32;;;;;;;30.12;14.80;;;;;;;2.08;62.60;99465.25;4054707;86;21223;-86
2020/12/01 13:34:35;;;;;;;29.87;15.23;;;;;;;2.01;62.84;99466.22;3924243;87;56414;-83
2020/12/01 13:40:40;;;;;;;36.28;16.02;;;;;;;1.98;63.23;99473.04;3852446;89;21371;-84
2020/12/01 13:46:43;;;;;;;31.15;14.43;;;;;;;1.93;63.36;99474.50;3879055;90;21204;-83
2020/12/01 13:53:02;;;;;;;31.10;15.68;;;;;;;1.88;63.13;99474.63;3778720;89;5516843;-83
2020/12/01 13:59:04;;;;;;;30.88;15.18;;;;;;;1.79;63.42;99472.95;3803655;88;69713;-86
2020/12/01 14:05:06;;;;;;;31.82;15.18;;;;;;;1.73;63.29;99468.78;3871510;90;21388;-86
2020/12/01 14:11:07;;;;;;;37.95;16.42;;;;;;;1.63;63.39;99503.00;3863932;90;21235;-85
2020/12/01 14:17:09;;;;;;;41.13;19.02;;;;;;;1.45;63.58;99486.97;3925396;89;21710;-86
2020/12/01 14:23:10;;;;;;;44.18;21.23;;;;;;;1.45;63.58;99486.97;3931496;89;21241;-85
2020/12/01 14:29:12;;;;;;;37.03;18.82;;;;;;;1.34;64.01;99499.08;3931341;89;21233;-86
2020/12/01 14:35:18;;;;;;;46.35;21.10;;;;;;;1.14;64.14;99500.85;3923611;89;21395;-86
2020/12/01 14:41:21;;;;;;;49.13;21.77;;;;;;;0.83;64.44;99495.25;3932242;89;21269;-85
2020/12/01 14:48:02;;;;;;;81.97;34.30;;;;;;;0.74;64.72;99501.62;3925948;89;21213;-84
2020/12/01 14:54:17;;;;;;;97.90;37.20;;;;;;;0.43;65.01;99504.63;3861251;89;25167;-85
2020/12/01 15:07:58;;;;;;;101.73;40.77;;;;;;;-0.31;65.83;99510.41;4444712;78;21621;-84
2020/12/01 15:14:00;;;;;;;96.00;42.08;;;;;;;-0.58;66.33;99513.50;4436544;79;21628;-83
2020/12/01 15:20:06;;;;;;;108.60;44.23;;;;;;;-0.81;66.92;99515.13;4442350;78;21580;-83
2020/12/01 15:26:09;;;;;;;104.50;47.00;;;;;;;-0.97;67.29;99520.98;4438442;79;21169;-83
2020/12/01 15:32:11;;;;;;;98.10;44.77;;;;;;;-1.07;67.70;99515.72;4272350;78;36863;-83
2020/12/01 15:38:22;;;;;;;125.43;52.67;;;;;;;-1.21;68.03;99524.20;4172877;84;21221;-82
2020/12/01 15:44:24;;;;;;;148.83;59.13;;;;;;;-1.31;68.41;99527.80;4176171;83;21165;-83
2020/12/01 15:50:25;;;;;;;148.33;56.97;;;;;;;-1.41;68.62;99529.79;4133732;84;21177;-83
2020/12/01 15:57:03;;;;;;;164.53;64.00;;;;;;;-1.60;68.77;99547.16;4168434;84;21857;-82
2020/12/01 16:03:26;;;;;;;184.70;70.85;;;;;;;-1.74;69.44;99548.89;4158757;84;21292;-82
2020/12/01 16:10:08;;;;;;;163.40;67.87;;;;;;;-1.84;69.59;99559.70;4201337;82;21184;-81
2020/12/01 16:16:26;;;;;;;148.37;60.93;;;;;;;-1.95;69.97;99554.95;4215431;82;21362;-80
2020/12/01 16:22:28;;;;;;;139.87;57.70;;;;;;;-1.94;70.19;99560.57;4208819;83;21340;-81
2020/12/01 16:28:29;;;;;;;128.40;57.80;;;;;;;-2.11;70.42;99575.45;4203216;83;21161;-81
2020/12/01 16:34:31;;;;;;;182.37;73.87;;;;;;;-2.15;70.78;99573.88;4227683;82;21358;-80
2020/12/01 16:41:03;;;;;;;204.37;79.00;;;;;;;-2.30;70.61;99580.66;4209912;82;21738;-80
2020/12/01 16:47:15;;;;;;;169.50;73.67;;;;;;;-2.39;70.81;99581.52;4207708;83;21350;-80
2020/12/01 16:54:04;;;;;;;174.43;69.47;;;;;;;-2.53;71.40;99587.22;4198669;83;21185;-80
2020/12/01 17:00:25;;;;;;;192.07;71.07;;;;;;;-2.71;71.42;99589.97;4206279;83;22306;-80
2020/12/01 17:06:38;;;;;;;184.53;76.40;;;;;;;-2.81;71.51;99589.20;4139966;85;21193;-80
2020/12/01 17:13:05;;;;;;;198.67;80.47;;;;;;;-2.88;71.74;99592.73;4085215;84;22113;-80
2020/12/01 17:19:07;;;;;;;300.37;118.07;;;;;;;-2.88;71.89;99594.08;4078047;84;21181;-79
2020/12/01 17:25:14;;;;;;;184.70;74.73;;;;;;;-2.93;73.52;99600.25;4083803;86;21302;-79
2020/12/01 17:31:45;;;;;;;211.97;79.93;;;;;;;-3.10;72.53;99604.30;4076287;86;21225;-79
2020/12/01 17:38:14;;;;;;;192.83;76.37;;;;;;;-3.23;72.92;99588.27;4070986;84;21200;-78
2020/12/01 17:44:45;;;;;;;215.77;86.60;;;;;;;-3.37;73.18;99592.02;4067391;86;21633;-79
2020/12/01 17:50:51;;;;;;;182.93;77.60;;;;;;;-3.39;73.68;99599.53;4032374;87;21190;-78
2020/12/01 17:57:04;;;;;;;175.60;76.93;;;;;;;-3.45;73.52;99599.80;4195187;83;21168;-79
2020/12/01 18:03:24;;;;;;;174.63;79.37;;;;;;;-3.50;74.09;99611.84;4475025;75;9999682;-79
2020/12/01 18:09:27;;;;;;;173.67;76.73;;;;;;;-3.51;73.98;99616.95;4528239;77;21177;-80
2020/12/01 18:15:44;;;;;;;184.60;83.00;;;;;;;-3.52;74.35;99620.67;4534015;77;21190;-79
2020/12/01 18:21:57;;;;;;;160.63;71.67;;;;;;;-3.58;74.08;99626.58;4524784;77;21656;-79
2020/12/01 18:28:05;;;;;;;155.73;68.97;;;;;;;-3.60;74.28;99632.72;4525213;77;21125;-79
2020/12/01 18:34:42;;;;;;;198.90;85.83;;;;;;;-3.76;74.32;99645.81;4526084;77;21365;-79
2020/12/01 18:40:46;;;;;;;214.03;92.60;;;;;;;-3.83;74.25;99644.47;4524749;77;21155;-79
2020/12/01 18:46:53;;;;;;;196.10;87.47;;;;;;;-3.86;74.82;99645.82;4520138;77;21184;-79
2020/12/01 18:53:09;;;;;;;215.57;91.60;;;;;;;-3.96;74.59;99641.00;4523860;77;21201;-79
2020/12/01 18:59:11;;;;;;;237.20;102.23;;;;;;;-4.11;74.92;99652.45;4525433;77;21607;-79
2020/12/01 19:05:12;;;;;;;240.03;99.77;;;;;;;-4.17;74.99;99657.52;4525929;77;21886;-81
2020/12/01 19:11:14;;;;;;;233.80;97.80;;;;;;;-4.22;75.22;99667.38;4520516;77;21719;-79
2020/12/01 19:17:16;;;;;;;226.37;96.10;;;;;;;-4.29;75.15;99668.96;4521652;77;21309;-78
2020/12/01 19:23:24;;;;;;;233.20;95.40;;;;;;;-4.33;75.39;99673.76;4536441;77;21169;-79
2020/12/01 19:29:26;;;;;;;230.77;97.27;;;;;;;-4.33;75.22;99685.78;4533460;76;21316;-79
2020/12/01 19:35:28;;;;;;;210.30;90.77;;;;;;;-4.49;75.44;99684.14;4526280;77;21182;-78
2020/12/01 19:41:30;;;;;;;198.67;82.20;;;;;;;-4.57;75.33;99691.31;4526630;77;21277;-78
2020/12/01 19:47:32;;;;;;;225.03;91.47;;;;;;;-4.69;75.82;99689.36;4528680;77;21350;-78
2020/12/01 19:53:34;;;;;;;220.03;97.80;;;;;;;-4.71;75.75;99700.30;4528789;77;21621;-79
2020/12/01 19:59:36;;;;;;;233.40;94.37;;;;;;;-4.68;75.80;99702.45;4524982;77;21362;-78
2020/12/01 20:05:38;;;;;;;236.20;101.63;;;;;;;-4.68;75.84;99709.69;4522889;77;21113;-78
2020/12/01 20:11:42;;;;;;;211.43;87.57;;;;;;;-4.82;75.84;99709.31;4513778;77;21186;-78
2020/12/01 20:17:46;;;;;;;271.20;109.30;;;;;;;-4.91;76.08;99715.69;4529972;77;21184;-78
2020/12/01 20:23:46;;;;;;;246.33;99.87;;;;;;;-4.93;76.27;99716.98;4527439;77;21283;-78
2020/12/01 20:29:48;;;;;;;252.47;104.70;;;;;;;-5.09;75.83;99725.42;4530087;77;21299;-79
2020/12/01 20:35:58;;;;;;;228.90;94.43;;;;;;;-5.15;76.32;99724.30;4519027;77;21604;-79
2020/12/01 20:42:01;;;;;;;235.83;96.17;;;;;;;-5.21;76.36;99724.80;4527049;77;21141;-79
2020/12/01 20:48:06;;;;;;;252.03;99.67;;;;;;;-5.29;76.40;99725.78;4523105;77;21164;-80
2020/12/01 20:54:08;;;;;;;270.03;102.63;;;;;;;-5.31;76.42;99739.94;4531320;77;21113;-79
2020/12/01 21:00:12;;;;;;;258.37;104.00;;;;;;;-5.32;76.77;99740.45;4523611;77;21167;-79
2020/12/01 21:06:14;;;;;;;270.90;103.13;;;;;;;-5.31;76.73;99751.39;4527081;77;21297;-79
2020/12/01 21:12:30;;;;;;;253.30;109.47;;;;;;;-5.39;76.56;99751.06;4527357;77;21164;-79
2020/12/01 21:18:31;;;;;;;231.30;96.40;;;;;;;-5.44;76.85;99749.68;4524266;77;21153;-79
2020/12/01 21:24:33;;;;;;;216.70;89.80;;;;;;;-5.48;77.09;99753.38;4525102;77;21611;-79
2020/12/01 21:30:41;;;;;;;225.17;89.23;;;;;;;-5.57;76.82;99752.75;4527277;77;22207;-79
2020/12/01 21:36:42;;;;;;;226.23;89.13;;;;;;;-5.68;77.04;99749.18;4524794;77;21174;-79
2020/12/01 21:43:09;;;;;;;214.00;84.60;;;;;;;-5.71;76.90;99751.02;4522427;77;21208;-79
2020/12/01 21:49:10;;;;;;;204.50;82.85;;;;;;;-5.75;77.24;99750.44;4499561;77;22094;-78
2020/12/01 21:55:32;;;;;;;210.50;82.27;;;;;;;-5.71;77.71;99756.36;4402471;77;10000479;-79
2020/12/01 22:01:56;;;;;;;237.97;92.03;;;;;;;-5.63;77.16;99756.42;4387275;79;21621;-79
2020/12/01 22:08:37;;;;;;;217.53;81.50;;;;;;;-5.70;77.29;99750.50;4476962;77;21161;-79
2020/12/01 22:15:07;;;;;;;216.27;80.20;;;;;;;-5.80;77.12;99753.86;4476218;79;21177;-79
2020/12/01 22:22:03;;;;;;;206.17;79.60;;;;;;;-5.86;77.26;99766.09;4456609;78;21141;-79
2020/12/01 22:28:45;;;;;;;207.80;81.00;;;;;;;-5.93;77.16;99764.13;4407337;77;21182;-80
2020/12/01 22:35:12;;;;;;;216.37;80.63;;;;;;;-5.93;77.55;99761.45;4472854;77;21203;-79
2020/12/01 22:42:04;;;;;;;191.60;77.90;;;;;;;-5.91;77.42;99762.84;4462162;78;21132;-79
2020/12/01 22:48:38;;;;;;;217.03;80.87;;;;;;;-6.07;77.29;99776.22;4473695;78;21172;-80
2020/12/01 22:55:10;;;;;;;219.90;88.83;;;;;;;-6.21;77.33;99771.80;4305633;81;21221;-80
2020/12/01 23:01:16;;;;;;;236.17;90.70;;;;;;;-6.12;77.64;99776.19;4472519;78;21146;-79
2020/12/01 23:07:18;;;;;;;225.47;86.67;;;;;;;-6.12;77.62;99777.52;4478341;77;21495;-80
2020/12/01 23:13:36;;;;;;;247.13;95.17;;;;;;;-6.18;77.43;99770.48;4488546;78;21177;-80
2020/12/01 23:19:39;;;;;;;254.37;95.57;;;;;;;-6.28;77.46;99771.70;4298317;81;21672;-80
2020/12/01 23:25:41;;;;;;;249.40;98.37;;;;;;;-6.31;77.65;99762.88;4293916;82;21185;-80
2020/12/01 23:31:43;;;;;;;274.50;102.57;;;;;;;-6.43;77.49;99763.50;4286174;81;21683;-79
2020/12/01 23:37:52;;;;;;;234.40;88.63;;;;;;;-6.50;77.69;99773.02;4292182;82;21417;-79
2020/12/01 23:44:33;;;;;;;277.17;99.63;;;;;;;-6.56;78.07;99768.14;4489060;78;21202;-80
2020/12/01 23:50:34;;;;;;;240.67;96.33;;;;;;;-6.30;78.30;99759.15;4486824;78;21137;-79
2020/12/01 23:56:36;;;;;;;291.93;111.73;;;;;;;-6.17;78.30;99772.91;4483309;78;21704;-80
